Time;durP1;ratioP1;P1;durP2;ratioP2;P2;SDS_P1;SDS_P2;PMS_P1;PMS_P2;Temp;Humidity;BMP_temperature;BMP_pressure;BME280_temperature;BME280_humidity;BME280_pressure;Samples;Min_cycle;Max_cycle;Signal;HPM_P1;HPM_P2
2023/12/12 00:00:52;;;;;;;27.65;4.63;;;10.00;1.00;;;8.83;100.00;100017.94;4967444;28;20051;-74
2023/12/12 00:03:19;;;;;;;17.45;4.32;;;10.10;1.00;;;8.90;100.00;100038.75;4981987;28;20039;-75
2023/12/12 00:05:46;;;;;;;16.17;4.97;;;10.10;1.00;;;8.85;100.00;100024.00;4966643;28;20046;-74
2023/12/12 00:08:13;;;;;;;19.52;4.40;;;10.00;1.00;;;8.85;100.00;100029.25;4975158;28;20047;-75
2023/12/12 00:10:40;;;;;;;17.02;4.15;;;10.00;1.00;;;8.72;100.00;100023.41;4978688;28;20741;-75
2023/12/12 00:13:07;;;;;;;20.67;4.75;;;10.00;1.00;;;8.82;100.00;100018.81;4973885;28;20068;-75
2023/12/12 00:15:37;;;;;;;15.45;4.68;;;10.00;1.00;;;8.83;100.00;100015.31;4979328;28;20047;-75
2023/12/12 00:18:04;;;;;;;15.15;4.10;;;10.00;1.00;;;8.77;100.00;100019.78;4981917;28;20540;-75
2023/12/12 00:20:31;;;;;;;17.27;4.47;;;10.00;1.00;;;8.74;100.00;100017.22;4982085;28;20046;-75
2023/12/12 00:22:59;;;;;;;20.73;4.43;;;9.90;1.00;;;8.61;100.00;100008.78;4967334;28;20065;-74
2023/12/12 00:25:27;;;;;;;13.60;4.50;;;9.90;1.00;;;8.78;100.00;100026.75;4981216;28;20054;-74
2023/12/12 00:27:55;;;;;;;18.00;5.72;;;10.50;1.00;;;8.63;100.00;100006.09;4981627;28;20047;-73
2023/12/12 00:30:22;;;;;;;11.35;3.20;;;9.90;1.00;;;8.68;100.00;100012.13;4979431;28;20057;-73
2023/12/12 00:32:49;;;;;;;15.60;4.30;;;9.90;1.00;;;8.73;100.00;100017.25;4981479;28;20417;-73
2023/12/12 00:35:16;;;;;;;17.83;4.25;;;9.90;1.00;;;8.64;100.00;100015.69;4980804;28;20126;-73
2023/12/12 00:37:42;;;;;;;15.85;5.03;;;9.90;1.00;;;8.68;100.00;100030.50;4965938;28;20047;-73
2023/12/12 00:40:10;;;;;;;17.42;5.47;;;9.80;1.00;;;8.67;100.00;100020.91;4981781;28;20046;-73
2023/12/12 00:42:38;;;;;;;17.10;5.18;;;9.80;1.00;;;8.56;100.00;100004.53;4965623;28;20126;-73
2023/12/12 00:45:06;;;;;;;17.80;4.45;;;9.80;1.00;;;8.61;100.00;100021.00;4980404;28;20855;-74
2023/12/12 00:47:33;;;;;;;17.48;4.43;;;9.80;1.00;;;8.68;100.00;100035.75;4981837;28;20049;-73
2023/12/12 00:50:05;;;;;;;20.10;4.85;;;9.80;1.00;;;8.50;100.00;100003.75;4966468;28;20138;-74
2023/12/12 00:52:32;;;;;;;13.77;4.00;;;9.90;1.00;;;8.59;100.00;100009.69;4962478;28;20787;-74
2023/12/12 00:54:59;;;;;;;19.77;5.40;;;9.80;1.00;;;8.66;100.00;100016.53;4964227;28;20061;-73
2023/12/12 00:57:27;;;;;;;15.75;5.18;;;9.90;1.00;;;8.68;100.00;100016.50;4981621;28;20122;-75
2023/12/12 00:59:54;;;;;;;15.45;4.65;;;9.80;1.00;;;8.43;100.00;99978.53;4977732;28;20055;-74
2023/12/12 01:02:26;;;;;;;12.73;4.18;;;9.90;1.00;;;8.73;100.00;100020.75;4981646;28;20054;-73
2023/12/12 01:04:53;;;;;;;13.90;4.70;;;9.80;1.00;;;8.67;100.00;100009.53;4980556;28;20046;-74
2023/12/12 01:07:20;;;;;;;14.25;4.15;;;9.90;1.00;;;8.70;100.00;100006.84;4984499;28;20417;-74
2023/12/12 01:09:47;;;;;;;19.50;4.50;;;9.90;1.00;;;8.74;100.00;100022.47;4985193;28;20121;-75
2023/12/12 01:12:14;;;;;;;15.55;4.53;;;9.90;1.00;;;8.74;100.00;100012.00;4985412;28;20484;-75
2023/12/12 01:14:41;;;;;;;20.80;5.35;;;9.90;1.00;;;8.75;100.00;100007.63;4969726;28;20043;-75
2023/12/12 01:17:08;;;;;;;14.55;4.45;;;9.90;1.00;;;8.74;100.00;100001.50;4970670;28;20039;-75
2023/12/12 01:19:35;;;;;;;19.70;5.22;;;9.90;1.00;;;8.79;100.00;99997.00;4970547;28;20058;-75
2023/12/12 01:22:02;;;;;;;18.75;5.97;;;10.00;1.00;;;8.70;100.00;99986.72;4970173;28;20050;-75
2023/12/12 01:24:31;;;;;;;18.33;5.40;;;10.00;1.00;;;8.81;100.00;99991.72;4984133;28;20137;-75
2023/12/12 01:26:58;;;;;;;28.83;6.97;;;9.90;1.00;;;8.69;100.00;99985.00;4970038;28;20054;-75
2023/12/12 01:29:25;;;;;;;20.52;6.90;;;9.90;1.00;;;8.69;100.00;99971.91;4985250;28;20035;-75
2023/12/12 01:31:52;;;;;;;18.20;6.95;;;10.00;1.00;;;8.50;100.00;99948.69;4985035;28;20292;-75
2023/12/12 01:34:19;;;;;;;18.83;5.88;;;10.00;1.00;;;8.82;100.00;99989.94;4967653;28;20035;-75
2023/12/12 01:36:46;;;;;;;15.18;4.63;;;9.90;1.00;;;8.64;100.00;99971.13;4970318;28;20362;-75
2023/12/12 01:39:13;;;;;;;15.50;4.85;;;10.00;1.00;;;8.66;100.00;99990.28;4984826;28;20043;-75
2023/12/12 01:41:40;;;;;;;18.90;5.20;;;10.00;1.00;;;8.69;100.00;99998.13;4984772;28;20497;-75
2023/12/12 01:44:07;;;;;;;14.57;4.50;;;9.90;1.00;;;8.73;100.00;99988.41;4984116;28;20508;-75
2023/12/12 01:46:35;;;;;;;17.77;4.68;;;9.90;1.00;;;8.65;100.00;99981.59;4969608;28;20054;-75
2023/12/12 01:49:07;;;;;;;14.60;3.53;;;9.90;1.00;;;8.55;100.00;99963.47;4984671;28;20097;-75
2023/12/12 01:51:35;;;;;;;15.10;4.53;;;9.90;1.00;;;8.67;100.00;99997.28;4984758;28;20489;-75
2023/12/12 01:54:06;;;;;;;12.48;4.18;;;9.80;1.00;;;8.61;100.00;99997.41;4984247;28;20042;-75
2023/12/12 01:56:34;;;;;;;20.00;4.20;;;9.80;1.00;;;8.60;100.00;100008.81;4984202;28;20055;-75
2023/12/12 01:59:02;;;;;;;23.73;5.90;;;9.70;1.00;;;8.42;100.00;99999.53;4968165;28;20074;-75
2023/12/12 02:01:30;;;;;;;19.52;4.50;;;9.70;1.00;;;8.33;100.00;99980.50;4984135;28;20057;-75
2023/12/12 02:03:59;;;;;;;13.93;4.97;;;9.60;1.00;;;8.36;100.00;99974.34;4982400;28;20062;-75
2023/12/12 02:06:28;;;;;;;14.60;4.05;;;9.60;1.00;;;8.43;100.00;99991.63;4967863;28;20055;-75
2023/12/12 02:08:55;;;;;;;20.80;6.20;;;9.70;1.00;;;8.40;100.00;99982.97;4951967;28;20043;-75
2023/12/12 02:11:22;;;;;;;18.65;4.72;;;9.60;1.00;;;8.39;100.00;99987.38;4984448;28;20042;-75
2023/12/12 02:13:49;;;;;;;11.90;3.55;;;9.60;1.00;;;8.30;100.00;99964.84;4983743;28;20050;-75
2023/12/12 02:16:17;;;;;;;10.95;4.25;;;9.60;1.00;;;8.23;100.00;99952.72;4983351;28;20046;-75
2023/12/12 02:18:44;;;;;;;17.85;5.03;;;9.60;1.00;;;8.26;100.00;99952.66;4975425;28;20050;-75
2023/12/12 02:21:23;;;;;;;17.20;5.70;;;9.60;1.00;;;8.25;100.00;99955.34;4969265;28;20241;-75
2023/12/12 02:23:51;;;;;;;12.75;4.43;;;9.60;1.00;;;8.27;100.00;99956.16;4968534;28;20057;-75
2023/12/12 02:26:18;;;;;;;13.75;4.07;;;9.60;1.00;;;8.23;100.00;99961.47;4983208;28;20066;-75
2023/12/12 02:28:45;;;;;;;12.35;4.70;;;9.50;1.00;;;8.27;100.00;99974.50;4967941;28;20053;-75
2023/12/12 02:31:13;;;;;;;15.55;4.53;;;9.50;1.00;;;8.18;100.00;99968.56;4967537;28;20393;-75
2023/12/12 02:33:40;;;;;;;14.75;3.33;;;9.40;1.00;;;8.20;100.00;99973.78;4983673;28;20039;-75
2023/12/12 02:36:07;;;;;;;10.98;3.80;;;9.40;1.00;;;8.01;100.00;99942.72;4967208;28;20045;-75
2023/12/12 02:38:34;;;;;;;16.83;4.47;;;9.40;1.00;;;8.11;100.00;99963.47;4967562;28;20395;-75
2023/12/12 02:41:01;;;;;;;10.85;3.92;;;9.40;1.00;;;7.90;100.00;99945.56;4983704;28;20051;-75
2023/12/12 02:43:28;;;;;;;11.88;4.10;;;9.20;1.00;;;7.92;100.00;99969.94;4983415;28;20049;-75
2023/12/12 02:45:55;;;;;;;11.38;4.93;;;9.20;1.00;;;7.88;100.00;99976.16;4966859;28;20043;-75
2023/12/12 02:48:22;;;;;;;14.52;4.22;;;9.10;1.00;;;7.88;100.00;99968.28;4968579;28;20093;-75
2023/12/12 02:50:49;;;;;;;21.30;5.22;;;9.10;1.00;;;7.84;100.00;99961.38;4983885;28;20461;-75
2023/12/12 02:53:16;;;;;;;12.88;4.15;;;9.10;1.00;;;7.68;100.00;99936.38;4968606;28;20074;-75
2023/12/12 02:55:43;;;;;;;12.73;4.55;;;9.10;1.00;;;7.80;100.00;99955.34;4982874;28;20047;-75
2023/12/12 02:58:10;;;;;;;10.68;4.28;;;9.10;1.00;;;7.57;100.00;99918.25;4983247;28;20161;-75
2023/12/12 03:00:37;;;;;;;13.13;3.90;;;9.10;1.00;;;7.72;100.00;99938.03;4983412;28;20113;-75
2023/12/12 03:03:04;;;;;;;10.85;3.90;;;9.10;1.00;;;7.72;100.00;99936.28;4983358;28;20058;-75
2023/12/12 03:05:32;;;;;;;10.73;4.93;;;9.00;1.00;;;7.70;100.00;99934.56;4982502;28;20142;-75
2023/12/12 03:07:59;;;;;;;16.60;5.28;;;9.00;1.00;;;7.73;100.00;99948.47;4982953;28;20039;-74
2023/12/12 03:10:26;;;;;;;14.68;4.45;;;9.00;1.00;;;7.58;100.00;99923.47;4968657;28;20054;-74
2023/12/12 03:12:53;;;;;;;10.18;3.83;;;8.90;1.00;;;7.57;100.00;99926.09;4983330;28;20141;-74
2023/12/12 03:15:20;;;;;;;13.70;5.07;;;8.90;1.00;;;7.62;100.00;99948.69;4966230;28;20047;-75
2023/12/12 03:17:47;;;;;;;11.43;3.63;;;8.90;1.00;;;7.48;100.00;99933.22;4983044;28;20066;-75
2023/12/12 03:20:14;;;;;;;12.93;4.10;;;8.90;1.00;;;7.57;100.00;99957.50;4983180;28;20535;-75
2023/12/12 03:22:41;;;;;;;14.27;4.10;;;8.80;1.00;;;7.41;100.00;99926.38;4968561;28;20200;-75
2023/12/12 03:25:08;;;;;;;13.98;3.58;;;8.80;1.00;;;7.40;100.00;99915.94;4977281;28;20047;-75
2023/12/12 03:27:35;;;;;;;7.57;3.40;;;8.70;1.00;;;7.45;100.00;99930.66;4982851;28;20178;-75
2023/12/12 03:30:03;;;;;;;18.52;4.32;;;8.80;1.00;;;7.53;100.00;99943.59;4964994;28;20051;-75
2023/12/12 03:32:30;;;;;;;14.35;3.92;;;8.70;1.00;;;7.49;100.00;99937.59;4982819;28;20380;-75
2023/12/12 03:34:57;;;;;;;11.48;4.22;;;8.70;1.00;;;7.27;100.00;99902.22;4980851;28;20109;-75
2023/12/12 03:37:24;;;;;;;12.70;4.28;;;8.70;1.00;;;7.35;100.00;99918.66;4981500;28;20039;-75
2023/12/12 03:39:51;;;;;;;13.52;4.03;;;8.70;1.00;;;7.34;100.00;99915.16;4966611;28;20054;-75
2023/12/12 03:42:19;;;;;;;14.82;4.57;;;8.70;1.00;;;7.51;100.00;99940.16;4983065;28;20055;-75
2023/12/12 03:44:46;;;;;;;11.60;3.15;;;8.70;1.00;;;7.30;100.00;99902.16;4981254;28;20471;-75
2023/12/12 03:47:12;;;;;;;10.00;3.55;;;8.70;1.00;;;7.47;100.00;99920.19;4967917;28;20111;-75
2023/12/12 03:49:39;;;;;;;16.58;4.57;;;8.70;1.00;;;7.52;100.00;99913.97;4982596;28;20145;-75
2023/12/12 03:52:07;;;;;;;13.05;4.30;;;8.70;1.00;;;7.42;100.00;99916.78;4982544;28;20070;-75
2023/12/12 03:54:35;;;;;;;11.95;3.75;;;8.70;1.00;;;7.27;100.00;99913.56;4963563;28;20622;-74
2023/12/12 03:57:03;;;;;;;8.88;3.70;;;8.60;1.00;;;7.16;100.00;99907.63;4981453;28;20062;-76
2023/12/12 03:59:30;;;;;;;6.93;3.22;;;8.60;1.00;;;7.07;100.00;99903.44;4967538;28;20046;-75
2023/12/12 04:01:57;;;;;;;13.50;6.88;;;8.50;1.00;;;7.09;100.00;99897.25;4966155;28;20097;-74
2023/12/12 04:04:24;;;;;;;10.23;4.55;;;8.50;1.00;;;7.02;100.00;99885.19;4981066;28;20062;-75
2023/12/12 04:06:51;;;;;;;15.02;5.60;;;8.40;1.00;;;7.09;100.00;99886.78;4965698;28;20057;-75
2023/12/12 04:09:18;;;;;;;17.50;7.03;;;8.40;1.00;;;7.21;100.00;99906.66;4967311;28;20041;-75
2023/12/12 04:11:45;;;;;;;16.05;5.65;;;8.60;1.00;;;7.17;100.00;99888.44;4982180;28;20508;-75
2023/12/12 04:14:12;;;;;;;10.38;4.30;;;8.50;1.00;;;7.20;100.00;99881.41;4977988;28;20045;-75
2023/12/12 04:16:39;;;;;;;12.75;5.57;;;8.50;1.00;;;7.20;100.00;99889.25;4961393;28;20051;-75
2023/12/12 04:19:06;;;;;;;12.50;5.10;;;8.50;1.00;;;7.18;100.00;99885.78;4981804;28;20425;-75
2023/12/12 04:21:33;;;;;;;13.88;4.75;;;8.50;1.00;;;7.30;100.00;99908.25;4981800;28;20067;-75
2023/12/12 04:24:00;;;;;;;13.80;4.82;;;8.50;1.00;;;7.25;100.00;99891.75;4967100;28;20047;-75
2023/12/12 04:26:31;;;;;;;15.05;5.20;;;8.50;1.00;;;7.38;100.00;99916.81;4965780;28;20066;-75
2023/12/12 04:29:03;;;;;;;19.58;7.22;;;8.50;1.00;;;7.30;100.00;99905.63;4982032;28;20054;-75
2023/12/12 04:31:31;;;;;;;10.18;5.10;;;8.50;1.00;;;7.31;100.00;99903.88;4982009;28;20050;-75
2023/12/12 04:33:57;;;;;;;15.98;4.75;;;8.60;1.00;;;7.19;100.00;99879.66;4981358;28;20113;-75
2023/12/12 04:36:24;;;;;;;16.38;4.85;;;8.60;1.00;;;7.45;100.00;99916.72;4949393;28;20057;-75
2023/12/12 04:38:52;;;;;;;15.27;4.28;;;8.70;1.00;;;7.32;100.00;99884.66;4981814;28;20125;-75
2023/12/12 04:41:19;;;;;;;12.48;4.18;;;8.60;1.00;;;7.36;100.00;99883.72;4984992;28;20375;-75
2023/12/12 04:43:46;;;;;;;9.00;3.63;;;8.70;1.00;;;7.09;100.00;99846.69;4985321;28;20117;-75
2023/12/12 04:46:20;;;;;;;17.10;4.63;;;8.70;1.00;;;7.23;100.00;99886.56;4985187;28;20073;-74
2023/12/12 04:48:47;;;;;;;15.38;4.55;;;8.70;1.00;;;7.32;100.00;99887.28;4985687;28;20043;-77
2023/12/12 04:51:15;;;;;;;10.80;4.00;;;8.60;1.00;;;7.38;100.00;99895.88;4986959;28;20121;-78
2023/12/12 04:53:42;;;;;;;13.27;4.40;;;8.60;1.00;;;7.34;100.00;99888.13;4967352;28;20043;-81
2023/12/12 04:56:09;;;;;;;14.40;5.13;;;9.10;1.00;;;7.41;100.00;99894.09;4986453;28;20047;-76
2023/12/12 04:58:36;;;;;;;11.20;5.00;;;8.60;1.00;;;7.46;100.00;99897.50;4987257;28;20055;-78
2023/12/12 05:01:04;;;;;;;12.85;5.05;;;8.70;1.00;;;7.21;100.00;99856.06;4985190;28;20042;-80
2023/12/12 05:03:32;;;;;;;14.52;3.92;;;8.70;1.00;;;7.46;100.00;99892.28;4985011;28;20047;-78
2023/12/12 05:06:00;;;;;;;10.88;4.45;;;9.20;1.00;;;7.32;100.00;99853.25;4970264;28;20157;-77
2023/12/12 05:08:27;;;;;;;17.88;5.32;;;9.50;1.00;;;7.37;100.00;99856.66;4982760;28;20047;-77
2023/12/12 05:10:54;;;;;;;14.75;5.30;;;8.80;1.00;;;7.56;100.00;99879.88;4985083;28;20057;-77
2023/12/12 05:13:21;;;;;;;16.67;5.47;;;8.80;1.00;;;7.58;100.00;99880.69;4978287;28;20043;-78
2023/12/12 05:15:49;;;;;;;11.05;4.00;;;9.90;1.00;;;7.53;100.00;99872.94;4985269;28;20050;-78
2023/12/12 05:18:16;;;;;;;11.23;4.05;;;8.80;1.00;;;7.60;100.00;99881.53;4984353;28;20429;-78
2023/12/12 05:20:44;;;;;;;13.68;5.38;;;8.90;1.00;;;7.57;100.00;99874.63;4954372;28;20058;-79
2023/12/12 05:23:11;;;;;;;9.63;4.10;;;8.90;1.00;;;7.59;100.00;99867.59;4978738;28;20046;-77
2023/12/12 05:25:39;;;;;;;12.18;3.63;;;8.90;1.00;;;7.59;100.00;99858.84;4972970;28;20042;-78
2023/12/12 05:28:07;;;;;;;9.82;4.07;;;8.90;1.00;;;7.63;100.00;99868.38;4986442;28;20039;-78
2023/12/12 05:30:34;;;;;;;12.55;4.22;;;8.90;1.00;;;7.63;100.00;99861.38;4970980;28;20051;-77
2023/12/12 05:33:04;;;;;;;12.13;4.40;;;8.90;1.00;;;7.50;100.00;99845.06;4984363;28;20054;-75
2023/12/12 05:35:32;;;;;;;10.20;4.10;;;8.90;1.00;;;7.73;100.00;99875.16;4985218;28;20050;-77
2023/12/12 05:37:59;;;;;;;14.77;4.30;;;8.90;1.00;;;7.49;100.00;99830.25;4986898;28;20050;-79
2023/12/12 05:40:26;;;;;;;9.82;3.70;;;9.00;1.00;;;7.65;100.00;99849.13;4986782;28;20077;-77
2023/12/12 05:42:53;;;;;;;12.73;4.03;;;9.00;1.00;;;7.78;100.00;99870.69;4987153;28;20061;-80
2023/12/12 05:45:20;;;;;;;9.05;3.42;;;9.00;1.00;;;7.75;100.00;99860.28;4987084;28;20137;-79
2023/12/12 05:47:47;;;;;;;12.45;4.03;;;9.00;1.00;;;7.09;100.00;99750.75;4969230;28;20625;-78
2023/12/12 05:50:17;;;;;;;15.15;4.13;;;9.00;1.00;;;7.68;100.00;99847.34;4980884;28;20039;-78
2023/12/12 05:52:44;;;;;;;12.60;4.35;;;9.00;1.00;;;7.59;100.00;99835.28;4986276;28;20039;-79
2023/12/12 05:55:12;;;;;;;10.35;3.72;;;9.00;1.00;;;7.46;100.00;99811.13;4962357;28;20085;-79
2023/12/12 05:57:39;;;;;;;13.40;4.30;;;9.00;1.00;;;7.28;100.00;99778.31;4986347;28;20050;-80
2023/12/12 06:00:07;;;;;;;9.02;4.07;;;9.20;1.00;;;7.57;100.00;99826.59;4953941;28;20548;-79
2023/12/12 06:02:40;;;;;;;11.68;4.40;;;9.10;1.00;;;7.88;100.00;99876.63;4965419;28;20047;-77
2023/12/12 06:05:08;;;;;;;11.52;4.75;;;9.10;1.00;;;7.69;100.00;99844.69;4984176;28;20061;-77
2023/12/12 06:07:36;;;;;;;12.20;4.30;;;9.10;1.00;;;7.91;100.00;99868.69;4986209;28;20046;-78
2023/12/12 06:10:08;;;;;;;9.50;4.55;;;9.10;1.00;;;7.85;100.00;99849.63;4986453;28;20420;-78
2023/12/12 06:12:35;;;;;;;12.45;4.50;;;9.10;1.00;;;7.76;100.00;99829.72;4969379;28;20046;-79
2023/12/12 06:15:07;;;;;;;8.70;3.90;;;9.20;1.00;;;7.87;100.00;99851.28;4970054;28;20480;-77
2023/12/12 06:17:35;;;;;;;10.77;4.38;;;9.10;1.00;;;7.83;100.00;99833.91;4986273;28;20049;-77
2023/12/12 06:20:03;;;;;;;11.07;5.22;;;9.20;1.00;;;7.82;100.00;99831.34;4973856;28;20122;-79
2023/12/12 06:22:30;;;;;;;12.15;4.03;;;9.10;1.00;;;7.54;100.00;99796.09;4986193;28;20520;-77
2023/12/12 06:24:57;;;;;;;7.43;3.33;;;9.10;1.00;;;7.84;100.00;99826.94;4984705;28;20105;-79
2023/12/12 06:27:24;;;;;;;9.07;4.03;;;9.10;1.00;;;7.90;100.00;99843.38;4969992;28;20051;-78
2023/12/12 06:29:51;;;;;;;10.75;4.10;;;9.20;1.00;;;7.66;100.00;99777.53;4970044;28;20105;-77
2023/12/12 06:32:19;;;;;;;11.60;4.32;;;9.10;1.00;;;7.85;100.00;99800.69;4969638;28;20043;-78
2023/12/12 06:34:46;;;;;;;14.32;5.28;;;9.10;1.00;;;7.54;100.00;99751.59;4984948;28;20102;-79
2023/12/12 06:37:13;;;;;;;12.43;4.68;;;9.10;1.00;;;7.60;100.00;99777.66;4963531;28;20473;-80
2023/12/12 06:39:43;;;;;;;12.90;4.60;;;9.60;1.00;;;7.76;100.00;99777.34;4987434;28;20126;-79
2023/12/12 06:42:11;;;;;;;;;;;9.30;1.00;;;7.60;100.00;99754.09;4987358;28;20063;-78
2023/12/12 06:44:38;;;;;;;11.73;4.72;;;9.80;1.00;;;7.89;100.00;99797.13;4986213;28;20199;-79
2023/12/12 06:47:05;;;;;;;11.70;4.88;;;9.10;1.00;;;7.93;100.00;99805.75;4971024;28;20059;-77
2023/12/12 06:49:32;;;;;;;17.55;6.15;;;9.20;1.00;;;7.65;100.00;99749.63;4978717;28;20057;-78
2023/12/12 06:52:01;;;;;;;9.88;4.88;;;9.20;1.00;;;8.01;100.00;99819.56;4986482;28;20097;-79
2023/12/12 06:54:28;;;;;;;12.93;5.43;;;9.20;1.00;;;8.00;100.00;99799.50;4986231;28;20039;-78
2023/12/12 06:56:56;;;;;;;9.80;4.07;;;9.70;1.00;;;7.79;100.00;99769.41;4987929;28;20138;-80
2023/12/12 06:59:23;;;;;;;8.98;4.70;;;9.30;1.00;;;8.02;100.00;99805.56;4971636;28;20464;-80
2023/12/12 07:01:51;;;;;;;7.43;3.97;;;9.80;1.00;;;7.56;100.00;99725.41;4987635;28;20125;-79
2023/12/12 07:04:18;;;;;;;10.43;3.85;;;9.30;1.00;;;8.12;100.00;99813.22;4972284;28;20053;-80
2023/12/12 07:06:46;;;;;;;12.32;4.60;;;9.60;1.00;;;8.01;100.00;99795.13;4968379;28;20058;-79
2023/12/12 07:09:13;;;;;;;10.45;4.20;;;9.40;1.00;;;8.13;100.00;99805.31;4980843;28;20731;-80
2023/12/12 07:11:41;;;;;;;12.77;5.22;;;9.40;1.00;;;8.19;100.00;99818.28;4988955;28;20161;-80
2023/12/12 07:14:08;;;;;;;11.15;4.10;;;9.40;1.00;;;7.99;100.00;99776.81;4987266;28;20043;-79
2023/12/12 07:16:35;;;;;;;12.70;4.38;;;9.90;1.00;;;8.02;100.00;99783.72;4987176;28;20113;-79
2023/12/12 07:19:02;;;;;;;9.23;4.35;;;10.10;1.00;;;8.08;100.00;99791.47;4988555;28;20223;-80
2023/12/12 07:21:30;;;;;;;9.05;3.78;;;9.50;1.00;;;8.24;100.00;99810.31;4987884;28;20078;-80
2023/12/12 07:23:57;;;;;;;12.95;4.18;;;9.50;1.00;;;8.28;100.00;99801.50;4988100;28;20128;-79
2023/12/12 07:26:24;;;;;;;13.65;7.65;;;9.50;1.00;;;8.22;100.00;99791.13;4987545;28;20089;-79
2023/12/12 07:28:51;;;;;;;18.23;6.78;;;9.50;1.00;;;8.23;100.00;99790.25;4988626;28;20051;-79
2023/12/12 07:31:19;;;;;;;10.15;5.05;;;10.10;1.00;;;8.36;100.00;99807.41;4972576;28;20070;-80
2023/12/12 07:33:46;;;;;;;11.70;4.90;;;9.80;8.80;;;8.39;100.00;99803.84;4985074;28;20054;-78
2023/12/12 07:36:13;;;;;;;8.93;4.70;;;9.60;1.50;;;8.41;100.00;99796.81;4976053;28;20043;-78
2023/12/12 07:38:41;;;;;;;13.07;4.43;;;9.60;1.00;;;8.37;100.00;99800.41;4984476;28;20095;-78
2023/12/12 07:41:09;;;;;;;11.45;4.53;;;9.60;1.50;;;8.30;100.00;99778.72;4969232;28;20047;-78
2023/12/12 07:43:36;;;;;;;13.73;6.25;;;9.60;8.80;;;8.22;100.00;99759.69;4984836;28;20057;-78
2023/12/12 07:46:03;;;;;;;14.55;6.18;;;9.70;3.80;;;8.34;100.00;99764.63;4984173;28;20094;-78
2023/12/12 07:48:31;;;;;;;12.65;5.20;;;9.70;1.00;;;8.33;100.00;99759.44;4968422;28;20057;-78
2023/12/12 07:50:58;;;;;;;13.18;4.60;;;10.60;1.00;;;8.47;100.00;99783.53;4984486;28;20053;-78
2023/12/12 07:53:25;;;;;;;10.65;4.55;;;9.70;1.00;;;8.38;100.00;99771.53;4984963;28;20050;-78
2023/12/12 07:55:52;;;;;;;10.20;4.32;;;9.90;7.40;;;8.48;100.00;99787.88;4973455;28;20093;-78
2023/12/12 07:58:18;;;;;;;10.40;4.55;;;9.80;3.00;;;8.46;100.00;99781.81;4984609;28;20105;-79
2023/12/12 08:00:46;;;;;;;11.73;4.90;;;9.70;7.80;;;8.45;100.00;99779.25;4972937;28;20420;-78
2023/12/12 08:03:14;;;;;;;11.00;6.25;;;9.80;6.90;;;8.54;100.00;99789.53;4976760;28;20047;-78
2023/12/12 08:05:42;;;;;;;10.30;5.53;;;9.80;6.50;;;8.62;100.00;99789.34;4983976;28;20692;-78
2023/12/12 08:08:10;;;;;;;15.38;5.20;;;9.80;8.80;;;8.57;100.00;99786.81;4983987;28;20053;-78
2023/12/12 08:10:37;;;;;;;16.58;5.22;;;10.50;7.20;;;8.47;100.00;99764.34;4983809;28;20453;-78
2023/12/12 08:13:04;;;;;;;9.95;4.80;;;9.90;7.30;;;8.65;100.00;99765.66;4967821;28;20048;-78
2023/12/12 08:15:31;;;;;;;10.55;3.83;;;9.80;6.00;;;8.58;100.00;99745.75;4983142;28;20401;-79
2023/12/12 08:17:59;;;;;;;9.48;4.05;;;9.80;23.30;;;8.53;100.00;99748.47;4983830;28;20137;-78
2023/12/12 08:20:26;;;;;;;10.40;3.60;;;9.90;24.00;;;8.68;100.00;99775.22;4982613;28;20046;-78
2023/12/12 08:22:53;;;;;;;8.98;4.38;;;9.90;15.30;;;8.58;100.00;99738.72;4965800;28;20277;-78
2023/12/12 08:25:23;;;;;;;7.07;4.13;;;9.90;14.00;;;8.73;100.00;99758.47;4983790;28;20090;-78
2023/12/12 08:27:50;;;;;;;8.27;3.47;;;9.90;18.00;;;8.72;100.00;99754.13;4968114;28;20051;-79
2023/12/12 08:30:17;;;;;;;6.65;3.10;;;9.90;13.50;;;8.70;100.00;99739.31;4984002;28;20124;-79
2023/12/12 08:32:45;;;;;;;10.43;3.75;;;9.90;23.50;;;8.62;100.00;99723.78;4984465;28;20035;-78
2023/12/12 08:35:12;;;;;;;11.15;3.65;;;10.00;21.70;;;8.68;100.00;99733.25;4984521;28;20039;-78
2023/12/12 08:37:40;;;;;;;9.88;4.05;;;10.00;24.60;;;8.69;100.00;99737.59;4984192;28;20134;-79
2023/12/12 08:40:09;;;;;;;8.55;3.47;;;9.90;26.30;;;8.68;100.00;99742.00;4984049;28;20054;-79
2023/12/12 08:42:39;;;;;;;7.15;3.58;;;10.00;26.20;;;8.79;100.00;99754.81;4983754;28;20074;-79
2023/12/12 08:45:08;;;;;;;9.77;4.18;;;10.00;22.10;;;8.84;100.00;99755.53;4983520;28;20093;-78
2023/12/12 08:47:36;;;;;;;13.65;5.05;;;10.00;29.80;;;8.76;100.00;99728.69;4983594;28;20138;-77
2023/12/12 08:50:05;;;;;;;12.93;5.85;;;10.10;28.20;;;8.70;100.00;99708.72;4967542;28;20720;-80
2023/12/12 08:52:32;;;;;;;15.23;7.32;;;10.00;30.80;;;8.86;100.00;99724.03;4983653;28;20410;-78
2023/12/12 08:55:05;;;;;;;11.88;6.68;;;10.80;28.80;;;8.93;100.00;99728.19;4966354;28;20051;-78
2023/12/12 08:57:34;;;;;;;10.25;5.97;;;10.10;28.10;;;8.87;100.00;99717.88;4967146;28;20416;-78
2023/12/12 09:00:03;;;;;;;10.70;5.40;;;10.10;24.90;;;8.76;100.00;99676.22;4984071;28;20058;-79
2023/12/12 09:02:30;;;;;;;9.95;4.45;;;10.20;26.60;;;8.83;100.00;99674.28;4984041;28;20129;-80
2023/12/12 09:04:58;;;;;;;13.10;4.13;;;10.60;32.00;;;8.99;100.00;99687.81;4982958;28;20138;-79
2023/12/12 09:07:29;;;;;;;10.55;4.82;;;10.20;26.80;;;9.14;100.00;99707.53;4983467;28;20058;-77
2023/12/12 09:09:57;;;;;;;9.75;4.38;;;10.30;28.60;;;9.03;100.00;99700.81;4967100;28;20153;-74
2023/12/12 09:12:24;;;;;;;11.77;6.05;;;10.30;40.90;;;9.10;100.00;99711.13;4981709;28;20055;-75
2023/12/12 09:14:53;;;;;;;9.02;5.82;;;10.20;47.50;;;9.05;100.00;99692.88;4981288;28;20216;-75
2023/12/12 09:17:20;;;;;;;9.18;5.63;;;10.30;43.60;;;9.10;100.00;99685.75;4981821;28;20117;-75
2023/12/12 09:19:47;;;;;;;10.75;4.50;;;10.30;37.20;;;9.18;100.00;99696.03;4977177;28;20166;-76
2023/12/12 09:22:14;;;;;;;8.98;4.18;;;10.30;40.80;;;9.12;100.00;99680.44;4981394;28;20043;-76
2023/12/12 09:24:42;;;;;;;11.30;3.85;;;10.50;39.50;;;9.32;100.00;99700.88;4981101;28;20507;-75
2023/12/12 09:27:09;;;;;;;7.32;4.00;;;10.50;38.90;;;9.19;100.00;99684.63;4967868;28;20046;-75
2023/12/12 09:29:36;;;;;;;13.35;4.22;;;10.50;32.40;;;9.27;100.00;99687.88;4968646;28;20473;-75
2023/12/12 09:32:07;;;;;;;9.45;4.22;;;10.50;33.20;;;9.26;100.00;99686.16;4985151;28;20078;-75
2023/12/12 09:34:34;;;;;;;11.20;3.40;;;10.50;31.10;;;9.34;100.00;99691.16;4984889;28;20043;-75
2023/12/12 09:37:01;;;;;;;8.63;3.30;;;10.50;29.40;;;9.35;100.00;99678.00;4968760;28;20042;-75
2023/12/12 09:39:28;;;;;;;20.80;5.28;;;10.50;27.40;;;9.36;100.00;99678.84;4970265;28;20049;-75
2023/12/12 09:41:59;;;;;;;8.70;4.03;;;10.90;35.60;;;9.34;100.00;99659.66;4968712;28;20053;-76
2023/12/12 09:44:36;;;;;;;8.15;3.85;;;10.60;29.80;;;9.41;100.00;99666.47;4984877;28;20049;-75
2023/12/12 09:47:05;;;;;;;9.75;3.55;;;10.60;28.50;;;9.40;100.00;99650.75;4969047;28;20520;-76
2023/12/12 09:49:33;;;;;;;6.15;3.47;;;10.60;30.70;;;9.41;100.00;99634.09;4984337;28;20405;-75
2023/12/12 09:52:02;;;;;;;7.82;3.50;;;10.70;28.70;;;9.57;100.00;99647.63;4983229;28;20050;-75
2023/12/12 09:54:29;;;;;;;7.60;4.38;;;10.70;31.50;;;9.55;100.00;99631.88;4968573;28;20074;-76
2023/12/12 09:56:56;;;;;;;11.70;3.25;;;10.70;28.90;;;9.64;100.00;99628.09;4984995;28;20042;-76
2023/12/12 09:59:23;;;;;;;9.63;3.30;;;10.80;31.20;;;9.58;100.00;99602.06;4984258;28;20097;-75
2023/12/12 10:01:55;;;;;;;7.65;3.53;;;10.80;27.10;;;9.69;100.00;99620.97;4969076;28;20165;-75
2023/12/12 10:04:24;;;;;;;8.18;4.55;;;10.90;26.40;;;9.69;100.00;99627.97;4984768;28;20592;-77
2023/12/12 10:06:57;;;;;;;9.25;3.15;;;10.90;24.60;;;9.66;100.00;99610.53;4968181;28;20125;-78
2023/12/12 10:09:24;;;;;;;6.75;3.58;;;10.80;24.80;;;9.64;100.00;99594.84;4984053;28;20164;-77
2023/12/12 10:11:51;;;;;;;6.60;3.28;;;10.90;25.70;;;9.72;100.00;99597.22;4984258;28;20406;-78
2023/12/12 10:14:39;;;;;;;8.57;3.67;;;10.90;21.20;;;9.82;100.00;99610.03;4984329;28;20053;-76
2023/12/12 10:17:10;;;;;;;8.77;4.07;;;11.00;18.00;;;9.76;100.00;99592.72;4969571;28;20070;-76
2023/12/12 10:19:38;;;;;;;9.93;3.60;;;10.90;18.70;;;9.76;100.00;99580.44;4968647;28;20043;-78
2023/12/12 10:22:08;;;;;;;8.02;3.35;;;10.90;20.10;;;9.77;100.00;99581.31;4968496;28;20776;-77
2023/12/12 10:24:37;;;;;;;8.32;3.22;;;11.00;18.70;;;9.85;100.00;99584.53;4984549;28;20057;-76